Time;durP1;ratioP1;P1;durP2;ratioP2;P2;SDS_P1;SDS_P2;PMS_P1;PMS_P2;Temp;Humidity;BMP_temperature;BMP_pressure;BME280_temperature;BME280_humidity;BME280_pressure;Samples;Min_cycle;Max_cycle;Signal;HPM_P1;HPM_P2
2021/12/02 00:01:05;;;;;;;104.17;43.70;;;;;;;0.66;95.72;94701.63;5119716;28;20257;-68
2021/12/02 00:03:34;;;;;;;108.10;45.93;;;;;;;0.95;94.62;94700.72;5120841;28;20185;-67
2021/12/02 00:06:00;;;;;;;94.57;44.43;;;;;;;0.82;94.89;94696.56;5119667;27;20204;-68
2021/12/02 00:08:27;;;;;;;110.37;47.77;;;;;;;0.46;96.71;94708.31;5121011;27;20192;-67
2021/12/02 00:10:54;;;;;;;87.77;43.20;;;;;;;0.63;96.15;94714.13;5118675;28;20231;-68
2021/12/02 00:13:24;;;;;;;87.93;43.43;;;;;;;0.79;97.05;94712.41;5120519;28;20200;-68
2021/12/02 00:15:55;;;;;;;99.90;47.17;;;;;;;0.78;96.71;94694.91;5119554;28;20211;-68
2021/12/02 00:21:19;;;;;;;94.37;47.20;;;;;;;0.97;94.72;94709.06;5119644;28;20216;-68
2021/12/02 00:23:51;;;;;;;101.00;47.70;;;;;;;0.88;95.73;94707.41;5121002;28;20641;-68
2021/12/02 00:26:19;;;;;;;99.87;46.17;;;;;;;0.87;95.64;94714.91;5122691;27;20315;-68
2021/12/02 00:28:50;;;;;;;103.30;47.07;;;;;;;0.93;95.04;94712.41;5124845;27;20216;-68
2021/12/02 00:31:20;;;;;;;95.23;47.10;;;;;;;0.84;95.05;94697.41;5123746;27;20256;-70
2021/12/02 00:33:49;;;;;;;97.83;47.27;;;;;;;0.72;96.67;94729.97;5123820;27;20211;-68
2021/12/02 00:36:19;;;;;;;95.53;45.13;;;;;;;0.62;96.21;94722.47;5123584;27;20246;-68
2021/12/02 00:38:47;;;;;;;70.60;37.83;;;;;;;0.93;96.69;94724.91;5124279;27;20629;-67
2021/12/02 00:41:16;;;;;;;75.47;36.70;;;;;;;0.91;95.00;94711.56;5123148;27;20291;-67
2021/12/02 00:43:43;;;;;;;64.00;33.00;;;;;;;0.77;94.77;94714.09;5124816;27;20232;-68
2021/12/02 00:46:13;;;;;;;63.70;32.40;;;;;;;0.94;94.98;94714.06;5122653;27;20695;-67
2021/12/02 00:48:40;;;;;;;57.07;29.20;;;;;;;0.54;95.74;94711.63;5123244;27;20291;-67
2021/12/02 00:51:09;;;;;;;69.13;34.13;;;;;;;0.57;97.17;94715.78;5124547;27;20338;-68
2021/12/02 00:53:40;;;;;;;70.60;35.80;;;;;;;0.60;97.48;94716.63;5123091;27;20283;-67
2021/12/02 00:56:08;;;;;;;75.23;37.37;;;;;;;0.73;96.51;94704.94;5122612;27;20200;-68
2021/12/02 00:58:35;;;;;;;64.83;33.47;;;;;;;0.73;96.15;94711.63;5124623;27;20196;-68
2021/12/02 01:01:02;;;;;;;80.97;39.47;;;;;;;0.63;96.46;94726.63;5122753;27;20192;-67
2021/12/02 01:03:33;;;;;;;83.33;40.53;;;;;;;0.74;96.72;94719.13;5122723;27;20263;-67
2021/12/02 01:06:00;;;;;;;78.23;39.90;;;;;;;0.96;96.32;94720.75;5122237;27;20192;-68
2021/12/02 01:08:27;;;;;;;80.40;39.80;;;;;;;0.81;95.91;94709.91;5123478;27;20208;-68
2021/12/02 01:10:55;;;;;;;70.23;36.93;;;;;;;0.82;96.07;94719.09;5121951;27;20249;-68
2021/12/02 01:13:22;;;;;;;76.60;37.40;;;;;;;1.08;95.41;94729.88;5124152;27;20238;-67
2021/12/02 01:15:50;;;;;;;80.50;37.93;;;;;;;1.06;94.53;94715.69;5124000;27;20226;-67
2021/12/02 01:18:16;;;;;;;83.40;38.63;;;;;;;0.92;96.05;94728.25;5122062;27;20200;-68
2021/12/02 01:20:45;;;;;;;71.77;35.67;;;;;;;0.70;96.67;94721.63;5123541;27;20215;-68
2021/12/02 01:23:12;;;;;;;70.50;38.10;;;;;;;0.78;96.87;94714.91;5123751;27;20666;-67
2021/12/02 01:25:40;;;;;;;78.90;36.00;;;;;;;0.63;97.25;94720.78;5122219;27;20285;-68
2021/12/02 01:28:09;;;;;;;64.63;33.67;;;;;;;0.92;96.76;94725.75;5122664;27;20188;-68
2021/12/02 01:30:37;;;;;;;79.07;38.13;;;;;;;1.05;95.53;94717.34;5123613;27;20200;-68
2021/12/02 01:33:06;;;;;;;75.87;37.17;;;;;;;1.18;93.92;94729.03;5122812;27;20593;-68
2021/12/02 01:35:36;;;;;;;73.60;36.17;;;;;;;1.46;91.95;94726.41;5123431;27;20193;-68
2021/12/02 01:38:03;;;;;;;72.93;37.03;;;;;;;1.31;91.21;94733.13;5122846;27;20196;-67
2021/12/02 01:40:29;;;;;;;81.50;37.73;;;;;;;1.07;92.58;94718.19;5122099;27;20304;-68
2021/12/02 01:42:59;;;;;;;70.63;36.57;;;;;;;1.13;92.71;94718.19;5122202;27;20641;-68
2021/12/02 01:45:30;;;;;;;76.53;36.27;;;;;;;1.21;92.78;94716.50;5123226;27;20257;-68
2021/12/02 01:47:58;;;;;;;66.73;33.87;;;;;;;1.24;92.65;94716.47;5123720;27;20603;-67
2021/12/02 01:50:26;;;;;;;67.73;34.20;;;;;;;1.28;93.03;94713.13;5122035;27;20201;-68
2021/12/02 01:52:56;;;;;;;65.53;32.10;;;;;;;1.22;93.00;94702.31;5122344;27;20228;-68
2021/12/02 01:55:24;;;;;;;58.57;29.13;;;;;;;1.16;93.98;94707.34;5122822;27;20918;-68
2021/12/02 01:58:00;;;;;;;71.33;32.53;;;;;;;1.37;91.93;94702.25;5122207;27;20704;-68
2021/12/02 02:00:32;;;;;;;56.43;29.07;;;;;;;1.24;92.74;94701.44;5123300;27;20204;-66
2021/12/02 02:03:01;;;;;;;58.57;29.70;;;;;;;1.11;93.49;94682.31;5121864;27;20645;-66
2021/12/02 02:05:30;;;;;;;58.33;29.03;;;;;;;1.20;94.14;94678.97;5122886;27;20204;-66
2021/12/02 02:08:00;;;;;;;57.37;29.97;;;;;;;1.09;93.81;94671.47;5121550;27;20235;-67
2021/12/02 02:10:28;;;;;;;50.13;26.37;;;;;;;1.25;93.22;94653.03;5122732;27;20273;-68
2021/12/02 02:12:58;;;;;;;47.93;26.77;;;;;;;1.33;93.00;94676.38;5121190;27;20706;-66
2021/12/02 02:15:25;;;;;;;50.73;25.50;;;;;;;0.89;94.64;94673.22;5121425;27;20207;-67
2021/12/02 02:17:57;;;;;;;41.20;22.83;;;;;;;0.76;95.20;94681.56;5122098;27;20199;-67
2021/12/02 02:20:26;;;;;;;47.40;25.90;;;;;;;0.69;96.74;94690.78;5122581;27;20224;-67
2021/12/02 02:22:53;;;;;;;54.93;27.23;;;;;;;0.93;95.44;94687.38;5121617;27;20192;-66
2021/12/02 02:25:20;;;;;;;53.83;29.37;;;;;;;0.91;95.63;94684.06;5121465;27;20312;-67
2021/12/02 02:27:47;;;;;;;59.83;30.30;;;;;;;0.62;96.09;94672.44;5123053;27;20204;-69
2021/12/02 02:30:14;;;;;;;51.80;27.23;;;;;;;0.76;96.66;94666.56;5121814;27;20608;-67
2021/12/02 02:32:40;;;;;;;45.73;23.90;;;;;;;0.95;95.78;94669.03;5122598;27;20604;-67
2021/12/02 02:35:08;;;;;;;44.97;24.37;;;;;;;0.97;95.05;94677.38;5121442;27;20257;-68
2021/12/02 02:37:37;;;;;;;49.60;26.73;;;;;;;0.75;96.15;94683.25;5122398;27;20196;-67
2021/12/02 02:40:08;;;;;;;56.13;28.80;;;;;;;0.57;96.06;94680.78;5121392;27;20208;-67
2021/12/02 02:42:35;;;;;;;56.30;28.50;;;;;;;0.45;96.70;94686.66;5122506;27;20200;-68
2021/12/02 02:45:04;;;;;;;53.63;27.73;;;;;;;0.62;96.59;94689.13;5122694;27;20256;-68
2021/12/02 02:47:31;;;;;;;53.73;29.40;;;;;;;0.37;97.51;94692.47;5120953;27;20196;-68
2021/12/02 02:49:58;;;;;;;46.83;24.30;;;;;;;0.49;98.69;94693.31;5121657;27;20738;-67
2021/12/02 02:52:25;;;;;;;57.77;31.33;;;;;;;0.82;97.31;94687.41;5121192;27;20999;-68
2021/12/02 02:54:54;;;;;;;43.37;26.20;;;;;;;0.95;97.38;94683.22;5120889;27;20453;-67
2021/12/02 02:57:24;;;;;;;41.87;22.50;;;;;;;1.13;95.06;94688.16;5120870;27;20340;-67
2021/12/02 03:02:43;;;;;;;56.27;25.93;;;;;;;1.27;92.55;94675.56;5121536;27;20204;-67
2021/12/02 03:05:23;;;;;;;42.53;24.70;;;;;;;1.00;93.74;94679.00;5121747;27;20208;-67
2021/12/02 03:07:54;;;;;;;53.60;24.90;;;;;;;1.04;95.46;94680.66;5122283;27;20219;-68
2021/12/02 03:10:29;;;;;;;47.93;25.03;;;;;;;0.78;95.02;94665.72;5120761;27;20204;-67
2021/12/02 03:12:59;;;;;;;48.07;24.53;;;;;;;0.92;95.56;94671.53;5120631;27;20227;-68
2021/12/02 03:18:10;;;;;;;58.27;26.17;;;;;;;1.25;92.65;94662.22;5121798;27;20719;-67
2021/12/02 03:20:37;;;;;;;49.77;25.90;;;;;;;1.14;91.91;94653.94;5121524;27;20197;-67
2021/12/02 03:23:04;;;;;;;50.03;26.67;;;;;;;1.19;91.40;94658.09;5120741;27;20208;-68
2021/12/02 03:25:32;;;;;;;53.70;28.50;;;;;;;0.92;92.04;94660.72;5120571;27;20281;-68
2021/12/02 03:27:59;;;;;;;52.77;28.87;;;;;;;0.74;92.90;94669.09;5121384;27;20673;-68
2021/12/02 03:30:26;;;;;;;55.37;29.53;;;;;;;0.64;94.44;94675.78;5119952;27;20224;-68
2021/12/02 03:32:52;;;;;;;62.13;29.33;;;;;;;0.74;94.25;94668.28;5121890;27;20231;-68
2021/12/02 03:35:19;;;;;;;57.63;29.07;;;;;;;0.67;93.66;94658.28;5120126;27;20204;-68
2021/12/02 03:37:46;;;;;;;60.70;29.80;;;;;;;0.57;93.76;94661.63;5121298;27;20276;-67
2021/12/02 03:40:13;;;;;;;53.23;27.57;;;;;;;0.42;94.50;94650.81;5121263;27;20200;-68
2021/12/02 03:42:46;;;;;;;60.87;28.40;;;;;;;0.47;94.65;94664.16;5120781;27;20196;-67
2021/12/02 03:45:13;;;;;;;57.73;27.13;;;;;;;0.48;95.07;94661.66;5121521;27;20200;-67
2021/12/02 03:47:40;;;;;;;55.23;27.37;;;;;;;0.61;94.25;94653.28;5120578;27;20214;-67
2021/12/02 03:50:08;;;;;;;64.87;29.90;;;;;;;0.65;94.81;94659.94;5120236;27;20200;-68
2021/12/02 03:52:34;;;;;;;59.23;29.27;;;;;;;0.59;93.86;94666.63;5121249;27;20315;-67
2021/12/02 03:55:01;;;;;;;54.10;26.63;;;;;;;0.73;93.71;94666.59;5120753;27;20208;-67
2021/12/02 03:57:29;;;;;;;51.47;27.75;;;;;;;0.66;93.59;94659.09;5120911;27;20252;-68
2021/12/02 03:59:57;;;;;;;64.10;29.97;;;;;;;0.79;93.00;94656.56;5119565;27;20200;-68
2021/12/02 04:02:24;;;;;;;50.80;28.00;;;;;;;0.97;91.91;94659.03;5121240;28;20188;-67
2021/12/02 04:04:52;;;;;;;53.63;28.83;;;;;;;0.65;92.28;94659.09;5120145;28;20200;-67
2021/12/02 04:07:20;;;;;;;63.13;31.73;;;;;;;0.78;92.22;94644.88;5120979;27;20223;-67
2021/12/02 04:09:48;;;;;;;54.73;30.20;;;;;;;0.84;90.72;94645.72;5119807;27;20242;-68
2021/12/02 04:12:20;;;;;;;63.73;30.63;;;;;;;0.48;92.02;94641.66;5119399;28;20280;-68
2021/12/02 04:14:52;;;;;;;58.53;29.97;;;;;;;0.53;93.18;94649.13;5121510;27;20227;-68
2021/12/02 04:17:29;;;;;;;66.68;31.05;;;;;;;0.78;91.98;94639.88;5119663;28;20591;-67
2021/12/02 04:19:56;;;;;;;57.73;30.17;;;;;;;0.83;91.34;94633.22;5121026;27;20200;-67
2021/12/02 04:22:22;;;;;;;71.37;36.27;;;;;;;0.94;89.94;94634.03;5119295;27;20201;-67
2021/12/02 04:24:49;;;;;;;72.43;35.03;;;;;;;0.99;90.25;94650.66;5119484;27;20227;-67
2021/12/02 04:27:16;;;;;;;60.30;33.97;;;;;;;0.83;89.46;94661.56;5121175;27;20228;-67
2021/12/02 04:29:43;;;;;;;71.37;34.63;;;;;;;0.86;89.74;94659.06;5119612;28;20620;-68
2021/12/02 04:32:10;;;;;;;76.57;37.03;;;;;;;0.76;90.00;94646.56;5120783;28;20227;-67
2021/12/02 04:34:38;;;;;;;66.87;35.17;;;;;;;0.56;91.12;94646.63;5119757;27;20206;-68
2021/12/02 04:37:05;;;;;;;71.07;35.60;;;;;;;0.51;91.91;94636.63;5120836;27;20261;-67
2021/12/02 04:39:31;;;;;;;79.27;37.10;;;;;;;0.55;92.07;94627.44;5119808;27;20215;-67
2021/12/02 04:41:58;;;;;;;76.27;37.70;;;;;;;0.30;91.86;94634.16;5120638;27;20201;-67
2021/12/02 04:44:25;;;;;;;109.73;52.60;;;;;;;0.31;91.91;94628.31;5120779;28;20197;-67
2021/12/02 04:46:53;;;;;;;68.50;34.00;;;;;;;0.34;92.29;94629.16;5119217;27;20234;-68
2021/12/02 04:49:20;;;;;;;74.03;34.87;;;;;;;0.33;92.11;94632.50;5120735;28;20201;-68
2021/12/02 04:51:48;;;;;;;68.63;35.37;;;;;;;0.17;93.87;94633.34;5119668;27;20204;-67
2021/12/02 04:54:16;;;;;;;76.97;34.93;;;;;;;0.48;92.70;94639.16;5120958;27;20242;-68
2021/12/02 04:56:43;;;;;;;68.13;35.07;;;;;;;0.54;92.68;94629.13;5120585;28;20265;-67
2021/12/02 04:59:10;;;;;;;66.33;35.27;;;;;;;0.40;93.63;94630.00;5119524;28;20261;-67
2021/12/02 05:01:36;;;;;;;71.13;36.53;;;;;;;0.48;92.96;94616.66;5120511;28;20204;-68
2021/12/02 05:04:03;;;;;;;72.43;37.83;;;;;;;0.23;93.48;94615.88;5119001;27;20204;-68
2021/12/02 05:06:30;;;;;;;76.43;38.90;;;;;;;0.36;93.13;94614.16;5120379;27;20212;-67
2021/12/02 05:08:58;;;;;;;81.07;40.43;;;;;;;0.41;92.02;94610.00;5120849;27;20192;-67
2021/12/02 05:11:25;;;;;;;73.40;38.17;;;;;;;0.41;91.97;94619.16;5122315;27;20240;-68
2021/12/02 05:13:52;;;;;;;82.63;41.37;;;;;;;0.51;91.90;94615.78;5122899;27;20273;-66
2021/12/02 05:16:19;;;;;;;86.17;45.77;;;;;;;0.53;90.63;94609.94;5124108;27;20633;-68
2021/12/02 05:18:45;;;;;;;88.60;45.03;;;;;;;0.30;90.67;94607.50;5122347;27;20594;-67
2021/12/02 05:21:13;;;;;;;81.53;41.87;;;;;;;0.32;90.89;94615.00;5123253;27;20567;-68
2021/12/02 05:23:40;;;;;;;85.50;42.40;;;;;;;-0.08;93.17;94609.22;5123896;27;20208;-67
2021/12/02 05:26:08;;;;;;;97.73;43.67;;;;;;;0.06;92.76;94616.69;5122329;27;20220;-68
2021/12/02 05:28:35;;;;;;;78.47;39.77;;;;;;;0.28;92.05;94618.34;5123720;27;20273;-66
2021/12/02 05:31:02;;;;;;;78.50;39.70;;;;;;;0.33;91.88;94611.66;5123230;27;21010;-66
2021/12/02 05:33:29;;;;;;;83.00;38.70;;;;;;;0.42;91.74;94616.66;5123699;27;20223;-67
2021/12/02 05:35:56;;;;;;;83.07;39.30;;;;;;;0.25;92.10;94615.84;5123368;27;20204;-66
2021/12/02 05:38:22;;;;;;;87.07;41.47;;;;;;;-0.05;94.25;94605.06;5123515;27;20272;-66
2021/12/02 05:40:50;;;;;;;91.33;41.33;;;;;;;0.02;94.04;94610.03;5122447;27;20204;-66
2021/12/02 05:43:18;;;;;;;87.30;40.53;;;;;;;0.04;93.97;94605.88;5122150;27;20893;-67
2021/12/02 05:45:45;;;;;;;80.93;40.40;;;;;;;-0.01;94.05;94599.25;5123495;27;20251;-67
2021/12/02 05:48:12;;;;;;;78.37;40.53;;;;;;;0.32;94.48;94612.50;5122195;27;20659;-67
2021/12/02 05:50:39;;;;;;;85.07;43.53;;;;;;;0.67;93.90;94613.25;5123700;27;20336;-67
2021/12/02 05:53:06;;;;;;;83.03;44.03;;;;;;;1.07;92.30;94615.59;5122238;27;20216;-67
2021/12/02 05:55:33;;;;;;;80.83;39.70;;;;;;;1.84;89.46;94614.31;5121971;27;20195;-67
2021/12/02 05:58:00;;;;;;;81.90;40.50;;;;;;;2.58;84.78;94604.47;5123138;27;20189;-68
2021/12/02 06:00:28;;;;;;;77.87;39.00;;;;;;;3.29;81.21;94612.84;5122100;27;20255;-67
2021/12/02 06:02:55;;;;;;;69.60;37.53;;;;;;;3.75;78.21;94616.38;5122815;27;20200;-68
2021/12/02 06:05:22;;;;;;;78.80;39.03;;;;;;;3.66;76.25;94615.69;5121966;27;20188;-68
2021/12/02 06:07:50;;;;;;;81.10;41.27;;;;;;;3.38;76.96;94618.59;5123541;27;20289;-68
2021/12/02 06:10:17;;;;;;;80.57;40.57;;;;;;;2.93;78.67;94616.63;5122031;27;20287;-68
2021/12/02 06:12:45;;;;;;;83.97;40.10;;;;;;;2.85;78.80;94618.41;5122626;27;20219;-69
2021/12/02 06:15:12;;;;;;;74.63;38.40;;;;;;;2.69;78.47;94616.06;5121399;27;20689;-70
2021/12/02 06:17:42;;;;;;;69.10;36.40;;;;;;;2.39;79.90;94609.66;5123034;27;20232;-69
2021/12/02 06:20:11;;;;;;;71.17;38.00;;;;;;;2.39;81.23;94614.69;5122747;27;20204;-67
2021/12/02 06:22:38;;;;;;;71.53;36.53;;;;;;;2.43;81.18;94615.50;5120856;27;20652;-67
2021/12/02 06:25:44;;;;;;;68.33;37.50;;;;;;;2.39;80.69;94616.38;5121337;27;20277;-68
2021/12/02 06:28:06;;;;;;;78.63;40.83;;;;;;;2.13;80.94;94621.59;5122675;27;20257;-67
2021/12/02 06:30:33;;;;;;;79.07;39.85;;;;;;;1.71;83.29;94622.78;5121476;27;20204;-67
2021/12/02 06:33:02;;;;;;;91.17;40.47;;;;;;;1.59;84.25;94632.84;5122182;27;20232;-67
2021/12/02 06:35:29;;;;;;;77.27;39.03;;;;;;;1.63;85.10;94632.00;5120897;27;20201;-67
2021/12/02 06:37:56;;;;;;;87.05;41.88;;;;;;;1.74;84.93;94602.69;5120639;27;20219;-68
2021/12/02 06:40:23;;;;;;;89.60;45.73;;;;;;;1.97;82.54;94625.91;5122423;27;20790;-68
2021/12/02 06:42:50;;;;;;;87.00;43.37;;;;;;;1.89;84.02;94626.81;5121191;27;20204;-69
2021/12/02 06:45:17;;;;;;;90.43;41.97;;;;;;;2.21;84.05;94626.56;5121039;27;20285;-68
2021/12/02 06:47:44;;;;;;;83.60;41.03;;;;;;;2.80;82.76;94615.09;5121735;27;20208;-68
2021/12/02 06:50:16;;;;;;;92.10;42.20;;;;;;;4.06;78.27;94626.81;5121090;27;20257;-68
2021/12/02 06:52:44;;;;;;;77.70;39.93;;;;;;;6.34;70.40;94618.09;5122257;27;20569;-66
2021/12/02 06:55:12;;;;;;;70.70;38.88;;;;;;;7.57;64.47;94617.28;5120820;27;20196;-69
2021/12/02 06:57:39;;;;;;;84.53;37.40;;;;;;;8.15;61.81;94611.31;5120692;27;20224;-69
2021/12/02 07:00:08;;;;;;;75.88;39.38;;;;;;;8.01;60.91;94613.44;5121947;27;20195;-67
2021/12/02 07:02:36;;;;;;;62.92;33.05;;;;;;;7.75;63.22;94608.34;5121777;27;20204;-69
2021/12/02 07:05:03;;;;;;;59.83;33.67;;;;;;;7.22;63.60;94618.28;5120395;27;20292;-70
2021/12/02 07:07:36;;;;;;;68.53;34.00;;;;;;;6.09;68.12;94615.31;5121459;27;20584;-67
2021/12/02 07:10:04;;;;;;;69.43;36.10;;;;;;;4.98;70.54;94612.63;5120758;27;20826;-69
2021/12/02 07:12:33;;;;;;;79.77;38.13;;;;;;;4.67;74.57;94617.41;5121340;27;20192;-72
2021/12/02 07:15:05;;;;;;;77.57;37.22;;;;;;;5.86;71.08;94607.44;5121903;27;20231;-69
2021/12/02 07:17:33;;;;;;;71.53;36.20;;;;;;;5.79;70.29;94612.59;5120229;27;20196;-68
2021/12/02 07:20:00;;;;;;;67.45;36.50;;;;;;;6.25;68.25;94610.72;5121808;27;20639;-67
2021/12/02 07:22:28;;;;;;;64.28;33.72;;;;;;;6.25;68.07;94610.72;5120351;27;20825;-68
2021/12/02 07:24:56;;;;;;;68.38;34.63;;;;;;;5.54;70.14;94605.59;5120391;27;20236;-67
2021/12/02 07:27:23;;;;;;;66.77;34.23;;;;;;;5.51;71.57;94603.16;5121185;27;20257;-68
2021/12/02 07:29:50;;;;;;;64.78;35.10;;;;;;;6.95;68.29;94597.13;5120151;27;20208;-67
2021/12/02 07:32:16;;;;;;;68.95;33.10;;;;;;;7.96;64.74;94602.63;5121045;27;20858;-67
2021/12/02 07:34:44;;;;;;;72.85;35.20;;;;;;;8.00;62.97;94596.59;5119699;27;20312;-67
2021/12/02 07:37:14;;;;;;;69.30;32.95;;;;;;;7.69;63.87;94604.28;5121491;27;20277;-69
2021/12/02 07:39:41;;;;;;;65.13;33.15;;;;;;;8.11;63.07;94599.63;5120305;27;20643;-67
2021/12/02 07:42:09;;;;;;;57.90;31.65;;;;;;;8.44;61.37;94604.50;5121429;27;20249;-67
2021/12/02 07:44:37;;;;;;;61.85;33.33;;;;;;;8.73;59.84;94603.53;5119780;27;20663;-67
2021/12/02 07:47:07;;;;;;;64.28;32.58;;;;;;;9.18;59.02;94598.59;5121714;27;20228;-69
2021/12/02 07:49:34;;;;;;;58.63;30.90;;;;;;;9.94;57.51;94585.59;5121420;27;20208;-68
2021/12/02 07:52:02;;;;;;;58.30;31.33;;;;;;;11.37;54.35;94589.88;5119771;27;20204;-68
2021/12/02 07:54:32;;;;;;;59.00;30.23;;;;;;;13.11;49.10;94592.63;5120052;27;20625;-67
2021/12/02 07:57:00;;;;;;;48.10;29.98;;;;;;;14.59;44.87;94587.25;5119699;28;20200;-68
2021/12/02 07:59:29;;;;;;;49.50;26.02;;;;;;;16.49;40.24;94587.69;5121307;28;20191;-68
2021/12/02 08:02:00;;;;;;;46.22;25.55;;;;;;;16.50;38.94;94573.94;5121088;28;20283;-68
2021/12/02 08:04:28;;;;;;;50.03;27.75;;;;;;;15.80;41.12;94593.75;5118534;28;20204;-68
2021/12/02 08:06:55;;;;;;;34.38;21.00;;;;;;;15.61;39.77;94589.75;5120929;28;20221;-69
2021/12/02 08:09:22;;;;;;;38.83;23.38;;;;;;;15.01;41.18;94588.25;5119541;28;20224;-69
2021/12/02 08:11:49;;;;;;;40.97;24.23;;;;;;;16.36;40.18;94592.78;5120700;27;20203;-68
2021/12/02 08:14:17;;;;;;;42.25;24.05;;;;;;;17.08;37.61;94580.41;5121357;27;20322;-67
2021/12/02 08:16:46;;;;;;;38.20;21.95;;;;;;;16.65;39.17;94583.25;5119842;28;20734;-70
2021/12/02 08:19:13;;;;;;;111.80;53.78;;;;;;;17.64;40.15;94579.16;5121085;27;20207;-72
2021/12/02 08:21:40;;;;;;;40.10;25.15;;;;;;;18.92;39.46;94576.00;5118751;28;20631;-71
2021/12/02 08:24:07;;;;;;;41.55;25.50;;;;;;;20.27;36.24;94572.53;5120290;27;20642;-72
2021/12/02 08:26:34;;;;;;;32.00;20.77;;;;;;;20.17;32.00;94570.78;5121063;27;20239;-68
2021/12/02 08:29:01;;;;;;;35.60;19.38;;;;;;;20.49;30.40;94571.66;5119659;28;20204;-70
2021/12/02 08:31:27;;;;;;;37.75;23.35;;;;;;;21.19;30.67;94565.09;5120882;27;20678;-67
2021/12/02 08:33:56;;;;;;;22.38;15.35;;;;;;;20.70;30.14;94567.34;5119968;27;20722;-69
2021/12/02 08:36:26;;;;;;;34.80;19.05;;;;;;;19.44;31.68;94566.13;5120974;28;20552;-67
2021/12/02 08:38:53;;;;;;;20.48;11.95;;;;;;;18.94;32.26;94560.44;5119679;28;20838;-68
2021/12/02 08:41:21;;;;;;;22.70;12.05;;;;;;;18.62;33.12;94561.06;5119572;27;21429;-69
2021/12/02 08:43:49;;;;;;;19.80;12.90;;;;;;;17.67;33.84;94553.28;5120987;27;20205;-68
2021/12/02 08:46:20;;;;;;;29.23;16.90;;;;;;;17.79;34.44;94552.44;5120926;27;20683;-66
2021/12/02 08:48:50;;;;;;;31.83;19.17;;;;;;;16.69;36.06;94564.16;5124560;27;20236;-68
2021/12/02 08:51:18;;;;;;;30.38;18.70;;;;;;;16.01;37.58;94554.00;5124289;27;20307;-68
2021/12/02 08:53:45;;;;;;;13.18;10.65;;;;;;;15.37;38.70;94554.53;5124346;27;20595;-68
2021/12/02 08:56:12;;;;;;;14.13;9.30;;;;;;;15.81;36.82;94554.41;5124069;27;20643;-68
2021/12/02 08:58:38;;;;;;;16.08;9.45;;;;;;;14.20;39.94;94555.31;5123269;27;20192;-68
2021/12/02 09:01:05;;;;;;;16.08;9.93;;;;;;;14.69;41.11;94557.66;5123939;27;20868;-67
2021/12/02 09:03:33;;;;;;;9.25;7.85;;;;;;;14.07;40.54;94545.88;5122247;27;20711;-68
2021/12/02 09:06:00;;;;;;;18.40;10.82;;;;;;;13.46;42.74;94538.94;5123410;27;20287;-68
2021/12/02 09:08:28;;;;;;;18.20;9.50;;;;;;;12.91;43.23;94540.03;5123864;27;20217;-68
2021/12/02 09:10:57;;;;;;;15.73;10.50;;;;;;;12.09;45.05;94523.78;5124246;27;20252;-68
2021/12/02 09:13:24;;;;;;;18.10;9.88;;;;;;;11.61;46.58;94536.22;5122616;27;20622;-68
2021/12/02 09:15:51;;;;;;;23.17;13.52;;;;;;;11.30;48.85;94539.31;5123829;27;20228;-68
2021/12/02 09:18:18;;;;;;;16.23;10.73;;;;;;;11.19;48.87;94535.53;5122484;27;20200;-69
2021/12/02 09:20:44;;;;;;;21.48;11.55;;;;;;;10.59;49.99;94533.94;5123831;27;20197;-69
2021/12/02 09:23:13;;;;;;;16.85;11.95;;;;;;;10.14;51.84;94523.91;5122909;27;20188;-69
2021/12/02 09:25:41;;;;;;;16.33;11.18;;;;;;;10.03;52.15;94513.34;5122776;27;20348;-69
2021/12/02 09:28:08;;;;;;;23.23;12.65;;;;;;;9.81;53.55;94518.47;5123706;27;20720;-69
2021/12/02 09:30:36;;;;;;;32.03;15.50;;;;;;;9.80;53.38;94526.97;5122587;27;20691;-68
2021/12/02 09:33:04;;;;;;;21.63;12.60;;;;;;;9.85;54.35;94530.16;5123637;27;20662;-67
2021/12/02 09:35:31;;;;;;;14.15;9.18;;;;;;;9.90;52.54;94507.94;5123753;27;20238;-70
2021/12/02 09:37:58;;;;;;;15.80;10.95;;;;;;;9.56;52.53;94518.59;5122644;27;20662;-68
2021/12/02 09:40:25;;;;;;;24.48;11.27;;;;;;;9.06;54.39;94516.22;5123712;27;20663;-68
2021/12/02 09:42:53;;;;;;;24.33;12.77;;;;;;;8.37;56.80;94522.06;5122660;27;20196;-68
2021/12/02 09:45:20;;;;;;;17.30;10.88;;;;;;;7.98;58.24;94530.03;5122828;27;20196;-68
2021/12/02 09:47:49;;;;;;;16.65;10.55;;;;;;;8.17;58.87;94520.97;5123701;27;20203;-67
2021/12/02 09:50:21;;;;;;;21.23;11.75;;;;;;;8.68;57.08;94509.97;5121824;27;20738;-67
2021/12/02 09:52:49;;;;;;;18.73;13.00;;;;;;;8.98;56.44;94504.69;5122488;27;20230;-69
2021/12/02 09:55:23;;;;;;;30.23;15.90;;;;;;;8.66;56.89;94504.13;5122141;27;20308;-68
2021/12/02 09:57:53;;;;;;;26.75;17.08;;;;;;;8.33;58.55;94500.25;5122146;27;20279;-69
2021/12/02 10:00:25;;;;;;;30.65;16.67;;;;;;;8.15;58.38;94502.50;5122212;27;20308;-66
2021/12/02 10:02:56;;;;;;;27.77;15.73;;;;;;;8.24;59.55;94492.91;5122332;27;20203;-68
2021/12/02 10:05:38;;;;;;;22.17;14.45;;;;;;;8.46;58.22;94492.16;5123129;27;20201;-67
2021/12/02 10:08:08;;;;;;;26.60;14.98;;;;;;;8.37;58.39;94484.91;5121123;27;20227;-67
2021/12/02 10:10:39;;;;;;;24.75;12.88;;;;;;;8.63;58.20;94484.00;5121941;27;20208;-68
2021/12/02 10:13:21;;;;;;;27.73;14.20;;;;;;;8.81;57.28;94468.13;5123219;27;20284;-67
2021/12/02 10:21:37;;;;;;;22.35;12.63;;;;;;;8.68;56.69;94464.38;5072536;28;20202;-67
2021/12/02 10:24:09;;;;;;;25.83;12.77;;;;;;;9.24;56.22;94461.47;5077363;28;20205;-68
2021/12/02 10:26:39;;;;;;;22.23;12.15;;;;;;;9.19;56.21;94453.22;5076412;28;20206;-69
2021/12/02 10:29:16;;;;;;;19.60;11.82;;;;;;;9.45;56.16;94442.91;5077350;28;20202;-68
2021/12/02 10:31:46;;;;;;;19.77;12.05;;;;;;;9.51;55.14;94455.34;5076378;28;20345;-69
2021/12/02 10:34:17;;;;;;;18.90;11.32;;;;;;;9.45;54.04;94455.56;5077333;28;20209;-69
2021/12/02 10:36:45;;;;;;;21.30;11.23;;;;;;;8.92;56.00;94451.69;5076630;28;20240;-69
2021/12/02 10:39:17;;;;;;;18.38;11.07;;;;;;;8.95;56.62;94447.34;5076643;28;20210;-68
2021/12/02 10:41:45;;;;;;;16.85;11.70;;;;;;;9.03;55.42;94439.47;5076795;28;20660;-68
2021/12/02 10:44:23;;;;;;;17.77;11.25;;;;;;;9.19;55.84;94432.94;5077142;28;20206;-70
2021/12/02 10:47:01;;;;;;;17.30;10.90;;;;;;;9.19;55.58;94427.84;5076530;28;20216;-68
2021/12/02 10:49:31;;;;;;;14.82;10.93;;;;;;;9.08;55.37;94430.00;5075985;28;20228;-69
2021/12/02 10:52:01;;;;;;;14.30;9.75;;;;;;;9.12;57.08;94414.63;5077120;28;20198;-69
2021/12/02 10:54:31;;;;;;;14.32;9.65;;;;;;;9.21;55.81;94415.94;5076230;28;20197;-68
2021/12/02 10:56:59;;;;;;;15.93;9.23;;;;;;;9.18;55.99;94405.94;5076764;28;20692;-68
2021/12/02 10:59:41;;;;;;;16.38;9.75;;;;;;;9.20;55.86;94410.06;5075913;28;20206;-68
2021/12/02 11:02:16;;;;;;;15.05;8.85;;;;;;;9.10;55.50;94407.94;5076221;28;20202;-68
2021/12/02 11:04:46;;;;;;;14.23;8.82;;;;;;;9.35;55.94;94403.59;5076658;28;20880;-69
2021/12/02 11:07:22;;;;;;;16.25;8.25;;;;;;;9.27;54.55;94387.84;5065792;28;20226;-70
2021/12/02 11:09:50;;;;;;;12.40;8.68;;;;;;;9.08;55.45;94389.44;5056703;28;20210;-69
2021/12/02 11:12:20;;;;;;;19.90;10.45;;;;;;;8.88;56.41;94376.72;5057490;28;20563;-67
2021/12/02 11:14:56;;;;;;;14.60;8.93;;;;;;;9.08;56.85;94376.78;5056888;28;20214;-68
2021/12/02 11:17:23;;;;;;;11.73;8.05;;;;;;;9.08;55.55;94374.22;5057396;28;20245;-70
2021/12/02 11:19:52;;;;;;;12.35;8.93;;;;;;;8.94;56.27;94371.38;5057382;28;20210;-68
2021/12/02 11:22:21;;;;;;;15.88;8.57;;;;;;;8.90;57.16;94367.34;5052765;28;20284;-68
2021/12/02 11:24:50;;;;;;;14.65;8.43;;;;;;;8.85;56.90;94373.41;5054939;28;20272;-68
2021/12/02 11:27:19;;;;;;;10.77;7.80;;;;;;;8.93;57.20;94375.63;5060335;28;20225;-66
2021/12/02 11:29:50;;;;;;;12.10;8.70;;;;;;;9.09;56.84;94375.88;5052176;28;20187;-71
2021/12/02 11:32:40;;;;;;;15.10;8.13;;;;;;;9.00;56.76;94368.63;5052211;28;20275;-69
2021/12/02 11:35:18;;;;;;;22.05;13.95;;;;;;;9.25;61.33;94364.25;5047671;28;20252;-69
2021/12/02 11:37:47;;;;;;;16.48;9.20;;;;;;;9.31;56.89;94370.78;5053004;28;20318;-69
2021/12/02 11:40:18;;;;;;;11.98;8.77;;;;;;;9.38;56.65;94357.81;5051268;28;20594;-72
2021/12/02 11:42:46;;;;;;;11.05;8.90;;;;;;;9.35;56.82;94357.94;5050490;28;20203;-67
2021/12/02 11:45:16;;;;;;;13.80;9.55;;;;;;;9.24;56.80;94352.47;5050621;28;20277;-67